Time;durP1;ratioP1;P1;durP2;ratioP2;P2;SDS_P1;SDS_P2;PMS_P1;PMS_P2;Temp;Humidity;BMP_temperature;BMP_pressure;BME280_temperature;BME280_humidity;BME280_pressure;Samples;Min_cycle;Max_cycle;Signal;HPM_P1;HPM_P2
2021/07/31 00:01:06;;;;;;;16.45;6.93;;;18.90;99.90;;;;;;5042051;28;20136;-72
2021/07/31 00:03:31;;;;;;;12.73;7.30;;;18.90;99.90;;;;;;5051993;28;20411;-72
2021/07/31 00:05:57;;;;;;;10.57;7.15;;;18.90;99.90;;;;;;5051650;28;20057;-72
2021/07/31 00:08:23;;;;;;;9.60;7.05;;;18.80;99.90;;;;;;5048974;28;20033;-72
2021/07/31 00:10:48;;;;;;;10.93;6.85;;;18.80;99.90;;;;;;5052132;28;20482;-72
2021/07/31 00:13:14;;;;;;;12.30;6.53;;;18.80;99.90;;;;;;5051666;28;20040;-72
2021/07/31 00:15:40;;;;;;;13.40;6.20;;;18.80;99.90;;;;;;5050580;28;20025;-72
2021/07/31 00:18:05;;;;;;;9.95;6.10;;;18.80;99.90;;;;;;5042208;28;20029;-72
2021/07/31 00:20:31;;;;;;;8.43;5.90;;;18.80;99.90;;;;;;5048622;28;20091;-71
2021/07/31 00:22:56;;;;;;;9.80;6.05;;;18.70;99.90;;;;;;5051375;28;20020;-72
2021/07/31 00:25:21;;;;;;;9.43;6.30;;;18.70;99.90;;;;;;5051092;28;20112;-71
2021/07/31 00:27:47;;;;;;;10.00;6.25;;;18.70;99.90;;;;;;5049421;28;20067;-71
2021/07/31 00:30:12;;;;;;;11.02;6.43;;;18.60;99.90;;;;;;5051418;28;20067;-72
2021/07/31 00:32:38;;;;;;;9.85;5.57;;;18.60;99.90;;;;;;5051078;28;20246;-72
2021/07/31 00:35:04;;;;;;;9.75;6.20;;;18.60;99.90;;;;;;5049400;28;20517;-71
2021/07/31 00:37:29;;;;;;;7.70;5.43;;;18.60;99.90;;;;;;5049132;28;20036;-72
2021/07/31 00:40:01;;;;;;;11.52;6.32;;;18.60;99.90;;;;;;5051330;28;20208;-71
2021/07/31 00:42:26;;;;;;;;;;;18.60;99.90;;;;;;5051487;28;20045;-72
2021/07/31 00:44:52;;;;;;;10.10;6.10;;;18.50;99.90;;;;;;5051215;28;20000;-72
2021/07/31 00:47:17;;;;;;;7.22;5.93;;;18.50;99.90;;;;;;5050321;28;20382;-72
2021/07/31 00:49:44;;;;;;;8.90;5.97;;;18.50;99.90;;;;;;5048207;28;20040;-72
2021/07/31 00:52:09;;;;;;;9.20;6.55;;;18.40;99.90;;;;;;5050374;28;20692;-71
2021/07/31 00:54:35;;;;;;;10.65;6.75;;;18.40;99.90;;;;;;5044327;28;20033;-71
2021/07/31 00:57:01;;;;;;;9.77;6.30;;;18.40;99.90;;;;;;5045241;28;20124;-71
2021/07/31 00:59:27;;;;;;;12.38;6.28;;;18.30;99.90;;;;;;5050546;28;20021;-72
2021/07/31 01:01:52;;;;;;;9.60;6.22;;;18.40;99.90;;;;;;5050918;28;20063;-72
2021/07/31 01:04:18;;;;;;;10.27;6.00;;;18.30;99.90;;;;;;5050804;28;20108;-72
2021/07/31 01:06:44;;;;;;;11.00;7.20;;;18.30;99.90;;;;;;5048478;28;20445;-72
2021/07/31 01:09:10;;;;;;;8.20;6.53;;;18.30;99.90;;;;;;5035118;28;20029;-72
2021/07/31 01:11:36;;;;;;;8.60;6.45;;;18.30;99.90;;;;;;5050375;28;20033;-72
2021/07/31 01:14:02;;;;;;;11.70;6.78;;;18.20;99.90;;;;;;5050873;28;20029;-72
2021/07/31 01:16:28;;;;;;;10.15;6.82;;;18.20;99.90;;;;;;5044346;28;20057;-71
2021/07/31 01:18:54;;;;;;;10.35;7.03;;;18.20;99.90;;;;;;5043248;28;20285;-72
2021/07/31 01:21:41;;;;;;;14.73;7.93;;;18.20;99.90;;;;;;5049657;28;20036;-72
2021/07/31 01:24:08;;;;;;;13.38;6.90;;;18.30;99.90;;;;;;5047978;28;20064;-71
2021/07/31 01:26:37;;;;;;;11.88;6.68;;;18.30;99.90;;;;;;5050257;28;20051;-72
2021/07/31 01:29:04;;;;;;;10.73;6.75;;;18.30;99.90;;;;;;5045207;28;20052;-72
2021/07/31 01:31:29;;;;;;;10.88;6.78;;;18.30;99.90;;;;;;5045551;28;20036;-72
2021/07/31 01:33:58;;;;;;;10.40;6.68;;;18.30;99.90;;;;;;5049772;28;20044;-71
2021/07/31 01:36:23;;;;;;;7.88;5.90;;;18.40;99.90;;;;;;5045483;28;20033;-71
2021/07/31 01:38:49;;;;;;;10.48;6.65;;;18.40;99.90;;;;;;5045278;28;20025;-71
2021/07/31 01:41:14;;;;;;;10.38;6.90;;;18.40;99.90;;;;;;5041701;28;20108;-71
2021/07/31 01:43:39;;;;;;;12.18;6.47;;;18.40;99.90;;;;;;5041363;28;20528;-72
2021/07/31 01:46:05;;;;;;;10.75;6.20;;;18.50;99.90;;;;;;5048144;28;20036;-71
2021/07/31 01:48:30;;;;;;;8.73;6.40;;;18.50;99.90;;;;;;5038434;28;20045;-71
2021/07/31 01:50:56;;;;;;;10.25;5.63;;;18.60;99.90;;;;;;5046875;28;20132;-71
2021/07/31 01:53:21;;;;;;;9.13;6.20;;;18.50;99.90;;;;;;5048043;28;20078;-71
2021/07/31 01:55:47;;;;;;;13.60;6.13;;;18.60;99.90;;;;;;5049068;28;20025;-72
2021/07/31 01:58:12;;;;;;;9.35;5.72;;;18.50;99.90;;;;;;5046435;28;20024;-72
2021/07/31 02:00:38;;;;;;;11.40;4.35;;;18.50;99.90;;;;;;5043695;28;20037;-72
2021/07/31 02:03:03;;;;;;;8.05;4.65;;;18.50;99.90;;;;;;5037535;28;20112;-72
2021/07/31 02:05:29;;;;;;;7.53;4.45;;;18.50;99.90;;;;;;5049868;28;20053;-72
2021/07/31 02:07:54;;;;;;;6.15;4.03;;;18.50;99.90;;;;;;5049141;28;21299;-72
2021/07/31 02:10:20;;;;;;;6.05;4.13;;;18.60;99.90;;;;;;5039092;28;20070;-71
2021/07/31 02:12:45;;;;;;;8.93;4.30;;;18.60;99.90;;;;;;5043010;28;20072;-72
2021/07/31 02:15:11;;;;;;;8.90;3.83;;;18.60;99.90;;;;;;5040867;28;20708;-72
2021/07/31 02:17:36;;;;;;;6.22;3.47;;;18.70;99.90;;;;;;5049356;28;20025;-71
2021/07/31 02:20:02;;;;;;;9.20;3.17;;;18.80;99.90;;;;;;5047862;28;20025;-71
2021/07/31 02:22:28;;;;;;;5.72;3.45;;;19.00;99.50;;;;;;5048166;28;20033;-72
2021/07/31 02:24:53;;;;;;;4.90;3.17;;;19.20;98.20;;;;;;5047711;28;20554;-71
2021/07/31 02:27:19;;;;;;;15.35;3.45;;;19.40;96.80;;;;;;5045045;28;20021;-72
2021/07/31 02:29:44;;;;;;;4.55;3.50;;;19.50;96.20;;;;;;5041273;28;20086;-71
2021/07/31 02:32:10;;;;;;;6.05;3.67;;;19.70;95.10;;;;;;5048263;28;20029;-71
2021/07/31 02:34:35;;;;;;;8.27;3.75;;;19.70;95.30;;;;;;5043172;28;20570;-71
2021/07/31 02:37:01;;;;;;;6.38;3.80;;;19.60;95.00;;;;;;5048075;28;20021;-72
2021/07/31 02:39:26;;;;;;;5.18;3.53;;;19.70;95.10;;;;;;5044131;28;20471;-72
2021/07/31 02:41:52;;;;;;;3.90;3.20;;;19.60;95.10;;;;;;5048213;28;20435;-72
2021/07/31 02:44:17;;;;;;;5.80;3.72;;;19.70;95.40;;;;;;5049723;28;20025;-72
2021/07/31 02:46:43;;;;;;;4.65;3.35;;;19.70;95.50;;;;;;5048549;28;20430;-71
2021/07/31 02:49:08;;;;;;;5.10;3.33;;;19.60;95.30;;;;;;5034823;28;20067;-72
2021/07/31 02:51:33;;;;;;;3.80;3.30;;;19.60;95.30;;;;;;5039342;28;20040;-72
2021/07/31 02:53:59;;;;;;;5.45;3.55;;;19.60;95.20;;;;;;5048503;28;20071;-72
2021/07/31 02:56:25;;;;;;;4.13;3.40;;;19.60;95.50;;;;;;5044179;28;20017;-72
2021/07/31 02:58:50;;;;;;;4.43;3.13;;;19.50;95.40;;;;;;5046222;28;20094;-71
2021/07/31 03:01:16;;;;;;;9.55;3.30;;;19.50;95.00;;;;;;5039715;28;20057;-72
2021/07/31 03:03:41;;;;;;;8.00;3.35;;;19.50;94.60;;;;;;5047518;28;20033;-72
2021/07/31 03:06:07;;;;;;;4.25;3.00;;;19.50;94.50;;;;;;5046237;28;20638;-72
2021/07/31 03:08:32;;;;;;;5.78;2.70;;;19.50;94.00;;;;;;5048018;28;20029;-71
2021/07/31 03:11:04;;;;;;;4.53;2.97;;;19.50;94.10;;;;;;5044527;28;20029;-72
2021/07/31 03:13:30;;;;;;;4.60;2.60;;;19.50;93.60;;;;;;5041634;28;20037;-72
2021/07/31 03:15:56;;;;;;;4.00;2.58;;;19.50;93.20;;;;;;5047943;28;20024;-72
2021/07/31 03:18:22;;;;;;;6.47;2.50;;;19.50;92.60;;;;;;5047401;28;20463;-72
2021/07/31 03:20:50;;;;;;;4.25;2.70;;;19.50;92.70;;;;;;5048363;28;20383;-72
2021/07/31 03:23:18;;;;;;;4.32;2.90;;;19.50;92.60;;;;;;5045517;28;20025;-71
2021/07/31 03:25:43;;;;;;;4.93;2.65;;;19.50;92.90;;;;;;5035178;28;20049;-72
2021/07/31 03:28:09;;;;;;;4.05;2.90;;;19.40;92.90;;;;;;5040920;28;20577;-71
2021/07/31 03:30:45;;;;;;;8.57;2.30;;;19.40;93.20;;;;;;5037357;28;20031;-71
2021/07/31 03:33:12;;;;;;;4.88;2.80;;;19.40;92.70;;;;;;5042819;28;20032;-72
2021/07/31 03:35:39;;;;;;;3.67;2.67;;;19.40;92.70;;;;;;5046070;28;20029;-72
2021/07/31 03:38:05;;;;;;;3.97;2.55;;;19.40;92.90;;;;;;5045051;28;20083;-72
2021/07/31 03:40:31;;;;;;;3.30;2.75;;;19.40;92.90;;;;;;5041633;28;20536;-71
2021/07/31 03:42:56;;;;;;;4.32;2.65;;;19.40;93.00;;;;;;5042525;28;20112;-71
2021/07/31 03:45:22;;;;;;;3.78;2.60;;;19.40;93.10;;;;;;5047906;28;20060;-72
2021/07/31 03:47:48;;;;;;;3.92;2.60;;;19.30;93.20;;;;;;5048077;28;20395;-72
2021/07/31 03:50:13;;;;;;;9.25;2.97;;;19.30;93.30;;;;;;5042143;28;20032;-72
2021/07/31 03:52:39;;;;;;;4.35;2.65;;;19.30;93.50;;;;;;5045907;28;20646;-72
2021/07/31 03:55:08;;;;;;;4.97;2.90;;;19.20;93.90;;;;;;5046409;28;20017;-72
2021/07/31 03:57:34;;;;;;;4.75;3.03;;;19.20;93.50;;;;;;5041276;28;20040;-72
2021/07/31 04:00:00;;;;;;;5.70;2.50;;;19.20;93.30;;;;;;5044542;28;20021;-72
2021/07/31 04:02:26;;;;;;;3.42;2.63;;;19.10;93.30;;;;;;5042228;28;20436;-72
2021/07/31 04:04:51;;;;;;;4.28;2.55;;;19.10;93.20;;;;;;5035601;28;20025;-71
2021/07/31 04:07:17;;;;;;;5.53;2.38;;;19.10;93.00;;;;;;5048010;28;20115;-71
2021/07/31 04:09:43;;;;;;;5.97;2.67;;;19.10;93.20;;;;;;5045443;28;20032;-72
2021/07/31 04:12:08;;;;;;;3.03;2.40;;;19.10;92.80;;;;;;5039346;28;20035;-73
2021/07/31 04:14:42;;;;;;;2.95;2.65;;;19.10;92.80;;;;;;5029727;28;20116;-72
2021/07/31 04:17:07;;;;;;;8.10;2.58;;;19.00;92.90;;;;;;5036226;28;20022;-72
2021/07/31 04:19:33;;;;;;;3.38;2.50;;;19.00;93.10;;;;;;5047041;28;20041;-72
2021/07/31 04:21:59;;;;;;;2.20;2.00;;;19.00;93.40;;;;;;5047761;28;20079;-72
2021/07/31 04:24:28;;;;;;;2.65;1.83;;;18.90;93.60;;;;;;5037733;28;20072;-72
2021/07/31 04:26:54;;;;;;;4.20;1.95;;;18.90;93.40;;;;;;5031551;28;20048;-71
2021/07/31 04:29:20;;;;;;;3.22;2.22;;;18.90;93.40;;;;;;5041153;28;20037;-72
2021/07/31 04:31:46;;;;;;;5.53;2.30;;;18.90;93.50;;;;;;5039036;28;20039;-72
2021/07/31 04:34:12;;;;;;;2.55;2.00;;;18.90;93.70;;;;;;5044392;28;20422;-71
2021/07/31 04:36:38;;;;;;;3.22;1.90;;;18.90;93.40;;;;;;5042126;28;20029;-72
2021/07/31 04:39:04;;;;;;;3.78;2.08;;;18.90;93.40;;;;;;5046744;28;20021;-72
2021/07/31 04:41:30;;;;;;;3.05;2.00;;;18.90;93.70;;;;;;5048516;28;20035;-71
2021/07/31 04:43:56;;;;;;;4.80;2.53;;;18.90;93.40;;;;;;5051723;28;20028;-72
2021/07/31 04:46:21;;;;;;;3.72;2.05;;;18.90;93.60;;;;;;5050152;28;20502;-71
2021/07/31 04:48:47;;;;;;;2.45;1.80;;;18.90;93.20;;;;;;5046983;28;20036;-72
2021/07/31 04:51:12;;;;;;;8.27;2.38;;;18.90;92.90;;;;;;5050096;28;20032;-72
2021/07/31 04:53:38;;;;;;;3.08;2.00;;;18.90;93.00;;;;;;5051266;28;20463;-71
2021/07/31 04:56:04;;;;;;;2.10;1.45;;;18.90;92.90;;;;;;5051031;28;20033;-72
2021/07/31 04:58:29;;;;;;;3.50;1.95;;;18.90;93.10;;;;;;5043234;28;20029;-71
2021/07/31 05:01:01;;;;;;;1.98;1.77;;;18.90;93.00;;;;;;5047143;28;20025;-71
2021/07/31 05:03:28;;;;;;;5.45;2.17;;;18.90;92.90;;;;;;5042604;28;20501;-72
2021/07/31 05:05:54;;;;;;;5.18;2.00;;;18.90;92.80;;;;;;5049116;28;20041;-72
2021/07/31 05:08:19;;;;;;;4.18;2.10;;;18.90;92.70;;;;;;5051410;28;20033;-72
2021/07/31 05:10:46;;;;;;;2.40;1.85;;;18.90;92.80;;;;;;5044911;28;20567;-72
2021/07/31 05:13:12;;;;;;;2.83;1.90;;;19.00;92.60;;;;;;5050502;28;20510;-72
2021/07/31 05:15:39;;;;;;;2.45;1.55;;;19.00;92.60;;;;;;5050766;28;20037;-72
2021/07/31 05:18:05;;;;;;;2.22;1.70;;;19.00;92.30;;;;;;5042031;28;20035;-72
2021/07/31 05:20:32;;;;;;;1.88;1.75;;;19.10;92.00;;;;;;5047954;28;20024;-72
2021/07/31 05:22:58;;;;;;;2.05;1.40;;;19.20;92.20;;;;;;5044491;28;20049;-72
2021/07/31 05:25:24;;;;;;;3.33;1.50;;;19.20;91.80;;;;;;5049137;28;20696;-71
2021/07/31 05:27:49;;;;;;;2.08;1.45;;;19.30;91.60;;;;;;5047826;28;20076;-72
2021/07/31 05:30:15;;;;;;;1.90;1.40;;;19.30;90.80;;;;;;5047903;28;20063;-72
2021/07/31 05:32:40;;;;;;;2.45;1.52;;;19.30;90.90;;;;;;5049264;28;20762;-72
2021/07/31 05:35:07;;;;;;;1.60;1.50;;;19.30;90.60;;;;;;5043618;28;20558;-72
2021/07/31 05:37:32;;;;;;;2.03;1.33;;;19.30;90.30;;;;;;5050373;28;20021;-71
2021/07/31 05:39:59;;;;;;;6.43;1.42;;;19.30;90.00;;;;;;5040484;28;20027;-72
2021/07/31 05:42:25;;;;;;;2.42;1.40;;;19.30;90.40;;;;;;5049651;28;20021;-71
2021/07/31 05:45:03;;;;;;;4.95;1.60;;;19.30;90.40;;;;;;5046113;28;20056;-71
2021/07/31 05:47:29;;;;;;;2.35;1.20;;;19.30;90.00;;;;;;5041411;28;20060;-71
2021/07/31 05:50:01;;;;;;;2.55;1.30;;;19.30;90.00;;;;;;5037063;28;20067;-71
2021/07/31 05:52:28;;;;;;;3.80;1.50;;;19.30;90.70;;;;;;5039891;28;20049;-72
2021/07/31 05:54:55;;;;;;;1.60;1.20;;;19.30;89.40;;;;;;5044533;28;20026;-72
2021/07/31 05:57:21;;;;;;;6.43;1.60;;;19.20;90.00;;;;;;5036256;28;20021;-71
2021/07/31 05:59:46;;;;;;;3.38;1.60;;;19.20;90.30;;;;;;5041771;28;20033;-71
2021/07/31 06:02:12;;;;;;;1.55;1.20;;;19.20;90.50;;;;;;5036450;28;20487;-71
2021/07/31 06:04:38;;;;;;;1.58;1.13;;;19.30;90.30;;;;;;5047936;28;20102;-72
2021/07/31 06:07:06;;;;;;;1.50;1.15;;;19.30;89.90;;;;;;5073534;28;20052;-72
2021/07/31 06:09:33;;;;;;;4.43;1.20;;;19.30;89.10;;;;;;5059877;28;20398;-72
2021/07/31 06:11:58;;;;;;;4.25;1.52;;;19.30;89.00;;;;;;5073344;28;20036;-71
2021/07/31 06:14:23;;;;;;;2.40;1.20;;;19.40;87.00;;;;;;5071131;28;20020;-72
2021/07/31 06:16:49;;;;;;;3.30;1.13;;;19.40;87.10;;;;;;5079503;28;20037;-71
2021/07/31 06:19:14;;;;;;;1.27;1.02;;;19.40;86.50;;;;;;5079185;28;20044;-72
2021/07/31 06:21:40;;;;;;;3.00;1.25;;;19.40;85.60;;;;;;5083737;28;20388;-72
2021/07/31 06:24:05;;;;;;;3.80;1.60;;;19.50;85.40;;;;;;5062298;28;20029;-72
2021/07/31 06:26:31;;;;;;;3.15;1.30;;;19.50;85.30;;;;;;5053030;28;20483;-71
2021/07/31 06:28:56;;;;;;;1.95;1.30;;;19.50;85.80;;;;;;5067062;28;20039;-71
2021/07/31 06:31:22;;;;;;;3.88;1.50;;;19.50;85.10;;;;;;5075322;28;20025;-71
2021/07/31 06:33:47;;;;;;;5.40;1.25;;;19.60;84.90;;;;;;5072035;28;20032;-72
2021/07/31 06:36:19;;;;;;;4.43;1.33;;;19.60;84.60;;;;;;5080949;28;20412;-71
2021/07/31 06:38:45;;;;;;;2.83;1.38;;;19.60;83.50;;;;;;5057208;28;20024;-71
2021/07/31 06:41:10;;;;;;;2.58;1.23;;;19.60;83.80;;;;;;5076334;28;20143;-71
2021/07/31 06:43:35;;;;;;;6.20;1.40;;;19.60;82.90;;;;;;5077602;28;20028;-72
2021/07/31 06:46:15;;;;;;;1.10;1.00;;;19.70;81.70;;;;;;5073763;28;20108;-72
2021/07/31 06:48:41;;;;;;;2.05;1.10;;;19.70;82.40;;;;;;5063426;28;20361;-72
2021/07/31 06:51:07;;;;;;;0.95;0.90;;;19.80;81.60;;;;;;5082932;28;20025;-72
2021/07/31 06:53:33;;;;;;;6.47;1.17;;;19.80;81.40;;;;;;5079828;28;20032;-71
2021/07/31 06:56:00;;;;;;;1.70;1.10;;;19.80;80.90;;;;;;5075785;28;20418;-72
2021/07/31 06:58:26;;;;;;;4.05;1.33;;;19.80;78.90;;;;;;5066720;28;20034;-72
2021/07/31 07:00:51;;;;;;;1.33;1.10;;;19.90;78.60;;;;;;5057320;28;20453;-71
2021/07/31 07:03:17;;;;;;;2.45;0.77;;;19.90;79.50;;;;;;5057810;28;20024;-72
2021/07/31 07:05:43;;;;;;;1.20;1.10;;;19.90;79.30;;;;;;5076418;28;20446;-72
2021/07/31 07:08:08;;;;;;;1.20;1.00;;;20.00;78.10;;;;;;5080016;28;20092;-72
2021/07/31 07:10:34;;;;;;;1.90;1.40;;;20.00;77.80;;;;;;5068611;28;20067;-73
2021/07/31 07:12:59;;;;;;;3.00;1.08;;;20.00;78.30;;;;;;5084389;28;20039;-72
2021/07/31 07:15:27;;;;;;;3.78;1.23;;;20.10;77.80;;;;;;5057775;28;20032;-72
2021/07/31 07:17:54;;;;;;;3.67;1.15;;;20.10;75.90;;;;;;5074788;28;20039;-71
2021/07/31 07:20:20;;;;;;;3.00;1.00;;;20.10;76.60;;;;;;5071740;28;20087;-72
2021/07/31 07:22:45;;;;;;;1.65;0.80;;;20.20;77.90;;;;;;5065453;28;20024;-73
2021/07/31 07:25:11;;;;;;;2.67;0.98;;;20.20;76.40;;;;;;5066275;28;20535;-71
2021/07/31 07:27:37;;;;;;;2.92;1.10;;;20.30;75.80;;;;;;5055340;28;20372;-72
2021/07/31 07:30:03;;;;;;;2.50;0.85;;;20.40;75.70;;;;;;5069695;28;20107;-72
2021/07/31 07:32:33;;;;;;;2.35;1.23;;;20.40;75.80;;;;;;5063758;28;20031;-72
2021/07/31 07:34:58;;;;;;;3.45;1.00;;;20.50;73.60;;;;;;5077801;28;20036;-72
2021/07/31 07:37:24;;;;;;;5.28;1.17;;;20.50;75.40;;;;;;5056506;28;20051;-72
2021/07/31 07:39:49;;;;;;;8.38;1.05;;;20.50;75.30;;;;;;5070045;28;20057;-70
2021/07/31 07:42:15;;;;;;;4.22;1.00;;;20.60;75.30;;;;;;5060085;28;20478;-72
2021/07/31 07:44:40;;;;;;;1.35;1.00;;;20.60;74.50;;;;;;5079010;28;20119;-71
2021/07/31 07:47:05;;;;;;;1.40;1.08;;;20.70;74.10;;;;;;5062129;28;20025;-71
2021/07/31 07:49:31;;;;;;;1.50;0.90;;;20.80;73.40;;;;;;5067758;28;20097;-71
2021/07/31 07:51:56;;;;;;;4.65;1.20;;;20.80;73.20;;;;;;5077095;28;20032;-73
2021/07/31 07:54:22;;;;;;;3.13;1.10;;;20.80;73.20;;;;;;5060328;28;20033;-73
2021/07/31 07:56:47;;;;;;;1.67;1.20;;;20.80;72.00;;;;;;5062666;28;20383;-72
2021/07/31 07:59:13;;;;;;;1.77;1.02;;;20.90;72.70;;;;;;5067488;28;20154;-73
2021/07/31 08:01:38;;;;;;;1.98;1.10;;;20.90;71.60;;;;;;5085722;28;20190;-73
2021/07/31 08:04:04;;;;;;;2.00;1.10;;;21.10;72.60;;;;;;5056354;28;20024;-72
2021/07/31 08:06:30;;;;;;;1.27;1.10;;;21.20;71.80;;;;;;5062108;28;20556;-78
2021/07/31 08:08:55;;;;;;;2.65;1.00;;;21.30;70.40;;;;;;5065543;28;20109;-71
2021/07/31 08:11:20;;;;;;;3.90;1.05;;;21.40;69.00;;;;;;5059119;28;20021;-68
2021/07/31 08:13:46;;;;;;;1.58;1.10;;;21.40;69.40;;;;;;5065460;28;20040;-72
2021/07/31 08:16:12;;;;;;;1.63;1.00;;;21.40;68.10;;;;;;5063042;28;20097;-72
2021/07/31 08:18:37;;;;;;;1.08;0.90;;;21.30;67.90;;;;;;5083742;28;20086;-71
2021/07/31 08:21:03;;;;;;;2.28;1.10;;;21.30;67.60;;;;;;5073092;28;20429;-71
2021/07/31 08:23:29;;;;;;;4.68;1.00;;;21.30;67.90;;;;;;5079003;28;20031;-71
2021/07/31 08:25:54;;;;;;;1.95;0.82;;;21.30;69.20;;;;;;5071344;28;20017;-71
2021/07/31 08:28:20;;;;;;;2.92;1.00;;;21.50;67.80;;;;;;5057681;28;20064;-70
2021/07/31 08:30:45;;;;;;;0.77;0.77;;;21.60;66.50;;;;;;5074421;28;20028;-70
2021/07/31 08:33:11;;;;;;;1.48;0.90;;;21.80;66.20;;;;;;5058368;28;20098;-70
2021/07/31 08:35:36;;;;;;;0.65;0.57;;;21.80;65.90;;;;;;5091538;28;20032;-71
2021/07/31 08:38:02;;;;;;;3.97;1.13;;;21.80;63.50;;;;;;5068913;28;20021;-70
2021/07/31 08:40:28;;;;;;;1.85;0.80;;;21.90;64.10;;;;;;5091635;28;20043;-71
2021/07/31 08:42:54;;;;;;;2.75;1.02;;;21.90;60.90;;;;;;5068626;28;20212;-71
2021/07/31 08:45:19;;;;;;;2.05;0.80;;;21.90;61.90;;;;;;5069392;28;20110;-71
2021/07/31 08:47:46;;;;;;;1.20;0.80;;;22.00;60.20;;;;;;5074604;28;20052;-69
2021/07/31 08:50:12;;;;;;;1.85;0.95;;;22.00;60.30;;;;;;5066058;28;20037;-70
2021/07/31 08:52:46;;;;;;;1.63;0.93;;;21.90;60.20;;;;;;5058555;28;20028;-71
2021/07/31 08:55:11;;;;;;;1.95;1.00;;;21.80;60.70;;;;;;5077421;28;20060;-70
2021/07/31 08:57:37;;;;;;;2.47;0.90;;;21.80;62.20;;;;;;5073394;28;20052;-68
2021/07/31 09:00:04;;;;;;;1.25;0.90;;;21.80;62.40;;;;;;5062571;28;20475;-73
2021/07/31 09:02:46;;;;;;;1.30;0.80;;;21.90;62.80;;;;;;5066781;28;20029;-71
2021/07/31 09:05:28;;;;;;;1.10;0.85;;;22.00;61.40;;;;;;5065926;28;20108;-74
2021/07/31 09:08:01;;;;;;;4.82;0.85;;;22.00;61.80;;;;;;5075512;28;20054;-72
2021/07/31 09:10:29;;;;;;;1.92;0.88;;;21.90;61.80;;;;;;5077096;28;20033;-74
2021/07/31 09:12:56;;;;;;;2.92;1.00;;;21.90;61.50;;;;;;5069724;28;20039;-74
2021/07/31 09:15:30;;;;;;;4.95;1.25;;;21.90;62.40;;;;;;5064455;28;20119;-71
2021/07/31 09:18:19;;;;;;;2.88;0.93;;;22.00;62.90;;;;;;5083535;28;20031;-73
2021/07/31 09:20:52;;;;;;;1.10;1.00;;;22.20;62.10;;;;;;5064078;28;20035;-72
2021/07/31 09:23:18;;;;;;;2.45;1.13;;;22.30;61.80;;;;;;5073363;28;20028;-72
2021/07/31 09:25:58;;;;;;;3.55;1.15;;;22.50;61.90;;;;;;5078050;28;20028;-72
2021/07/31 09:28:24;;;;;;;3.30;1.10;;;22.60;60.50;;;;;;5082967;28;20040;-72
2021/07/31 09:30:50;;;;;;;3.05;1.00;;;22.70;60.50;;;;;;5061754;28;20028;-72
2021/07/31 09:33:17;;;;;;;2.10;1.00;;;22.60;60.50;;;;;;5072645;28;20035;-72
2021/07/31 09:35:48;;;;;;;3.85;1.52;;;22.60;61.80;;;;;;5064548;28;20056;-73
2021/07/31 09:38:15;;;;;;;15.07;1.60;;;22.70;61.10;;;;;;5068738;28;20048;-71
2021/07/31 09:40:41;;;;;;;1.35;1.25;;;22.60;61.60;;;;;;5056929;28;20039;-73
2021/07/31 09:43:17;;;;;;;4.63;1.27;;;22.60;62.60;;;;;;5070808;28;20486;-72
2021/07/31 09:45:43;;;;;;;2.15;1.20;;;22.60;62.60;;;;;;5077926;28;20036;-72
2021/07/31 09:48:09;;;;;;;2.85;1.20;;;22.70;61.70;;;;;;5071205;28;20148;-71
2021/07/31 09:50:42;;;;;;;1.10;0.93;;;22.80;61.70;;;;;;5070953;28;20028;-72
2021/07/31 09:53:13;;;;;;;2.20;1.23;;;22.90;59.90;;;;;;5064477;28;20100;-72
2021/07/31 09:55:47;;;;;;;2.38;1.25;;;23.00;59.90;;;;;;5053703;28;20060;-71
2021/07/31 09:58:14;;;;;;;1.92;0.98;;;23.00;60.30;;;;;;5072667;28;20436;-72
2021/07/31 10:00:42;;;;;;;2.55;1.25;;;22.90;60.60;;;;;;5077085;28;20032;-72
2021/07/31 10:03:09;;;;;;;1.90;1.13;;;22.80;63.40;;;;;;5062954;28;20470;-72
2021/07/31 10:05:38;;;;;;;4.70;1.13;;;22.80;62.40;;;;;;5068372;28;20123;-73
2021/07/31 10:08:05;;;;;;;4.13;1.63;;;22.90;60.80;;;;;;5058969;28;20547;-71
2021/07/31 10:10:30;;;;;;;2.75;1.10;;;23.10;62.20;;;;;;5066494;28;20033;-72
2021/07/31 10:12:57;;;;;;;5.35;1.60;;;23.30;59.20;;;;;;5070692;28;20165;-74
2021/07/31 10:15:26;;;;;;;2.75;1.20;;;23.50;59.00;;;;;;5057914;28;20037;-73
2021/07/31 10:17:51;;;;;;;3.00;0.82;;;23.70;57.20;;;;;;5060229;28;20055;-72
2021/07/31 10:20:28;;;;;;;1.35;1.00;;;23.90;57.20;;;;;;5052590;28;20017;-72
2021/07/31 10:22:54;;;;;;;8.02;1.20;;;24.00;56.50;;;;;;5059316;28;20044;-72
2021/07/31 10:25:22;;;;;;;2.15;1.00;;;24.10;56.50;;;;;;5065226;28;20032;-72
2021/07/31 10:27:48;;;;;;;6.22;0.93;;;24.00;56.10;;;;;;5068732;28;20039;-77
2021/07/31 10:30:38;;;;;;;3.90;1.15;;;23.80;56.20;;;;;;5061983;28;20036;-73
2021/07/31 10:33:24;;;;;;;3.43;1.40;;;23.70;56.20;;;;;;5056077;28;20377;-71
2021/07/31 10:35:50;;;;;;;4.20;1.58;;;23.60;57.10;;;;;;5058110;28;20066;-70
2021/07/31 10:38:33;;;;;;;2.35;1.23;;;23.60;56.80;;;;;;5066950;28;20052;-69
2021/07/31 10:40:58;;;;;;;1.90;1.00;;;23.50;57.80;;;;;;5067481;28;20044;-76
2021/07/31 10:43:59;;;;;;;2.28;1.10;;;23.50;56.30;;;;;;5059512;28;20024;-69
2021/07/31 10:46:25;;;;;;;5.43;1.00;;;23.40;56.70;;;;;;5058271;28;20044;-70
2021/07/31 10:48:51;;;;;;;2.05;1.00;;;23.30;56.80;;;;;;5066881;28;20506;-70
2021/07/31 10:51:38;;;;;;;1.67;1.23;;;23.20;58.70;;;;;;5073979;28;20383;-69
2021/07/31 10:54:03;;;;;;;1.98;0.85;;;23.10;57.90;;;;;;5077079;28;20029;-70
2021/07/31 10:56:56;;;;;;;2.85;1.52;;;23.00;58.50;;;;;;5068556;28;20036;-70
2021/07/31 10:59:21;;;;;;;1.25;1.00;;;23.00;57.50;;;;;;5064506;28;20586;-69
2021/07/31 11:01:47;;;;;;;1.77;1.00;;;23.00;58.10;;;;;;5059954;28;20107;-69
2021/07/31 11:04:55;;;;;;;0.90;0.80;;;23.10;58.10;;;;;;5069905;28;20486;-69
2021/07/31 11:07:25;;;;;;;4.20;0.80;;;23.20;57.70;;;;;;5059967;28;20474;-69
2021/07/31 11:10:28;;;;;;;3.22;1.10;;;23.40;58.10;;;;;;5053886;28;20032;-69
2021/07/31 11:12:53;;;;;;;2.60;1.20;;;23.50;57.50;;;;;;5064110;28;20035;-71
2021/07/31 11:15:19;;;;;;;1.58;1.00;;;23.90;56.90;;;;;;5057753;28;20037;-72
2021/07/31 11:17:54;;;;;;;1.38;1.08;;;24.00;56.50;;;;;;5067960;28;20023;-72
2021/07/31 11:20:28;;;;;;;1.02;0.88;;;24.10;55.80;;;;;;5066813;28;20031;-71
2021/07/31 11:22:55;;;;;;;0.88;0.70;;;24.00;55.30;;;;;;5063502;28;20096;-71
2021/07/31 11:25:21;;;;;;;2.63;0.90;;;24.10;56.40;;;;;;5060824;28;20039;-71
2021/07/31 11:27:58;;;;;;;2.40;1.00;;;24.00;55.00;;;;;;5060232;28;20032;-72
2021/07/31 11:30:38;;;;;;;4.68;1.13;;;23.80;55.30;;;;;;5063940;28;20439;-73
2021/07/31 11:33:21;;;;;;;2.05;1.00;;;23.70;56.80;;;;;;5076257;28;20103;-71
2021/07/31 11:35:49;;;;;;;1.73;0.90;;;23.60;56.40;;;;;;5056256;28;20110;-71
2021/07/31 11:38:37;;;;;;;2.67;0.90;;;23.50;56.80;;;;;;5059315;28;20031;-71
2021/07/31 11:41:11;;;;;;;1.13;0.88;;;23.50;56.70;;;;;;5053948;28;20494;-71
2021/07/31 11:43:54;;;;;;;3.78;1.00;;;23.70;57.30;;;;;;5069181;28;20402;-70
2021/07/31 11:46:46;;;;;;;3.88;1.08;;;23.70;57.20;;;;;;5067024;28;20029;-72
2021/07/31 11:49:24;;;;;;;4.10;1.00;;;23.70;56.90;;;;;;5047310;28;20546;-72
2021/07/31 11:51:51;;;;;;;1.10;1.00;;;23.90;56.00;;;;;;5057362;28;20099;-71
2021/07/31 11:54:17;;;;;;;5.38;0.95;;;24.10;56.00;;;;;;5055345;28;20025;-72
2021/07/31 11:56:45;;;;;;;10.20;1.40;;;24.80;53.80;;;;;;5071527;28;20618;-71
2021/07/31 11:59:12;;;;;;;1.00;0.80;;;25.50;51.60;;;;;;5061198;28;20029;-71
2021/07/31 12:01:39;;;;;;;1.02;0.70;;;26.20;52.30;;;;;;5073593;28;20119;-72
2021/07/31 12:04:06;;;;;;;0.80;0.80;;;26.80;50.50;;;;;;5072874;28;20032;-72
2021/07/31 12:06:44;;;;;;;2.28;0.93;;;26.90;49.20;;;;;;5082130;28;20122;-71
2021/07/31 12:09:20;;;;;;;2.47;0.98;;;27.30;48.90;;;;;;5077538;28;20832;-72
2021/07/31 12:11:47;;;;;;;1.30;0.73;;;27.90;48.70;;;;;;5076052;28;20028;-71
2021/07/31 12:14:36;;;;;;;0.82;0.80;;;28.50;47.80;;;;;;5075088;28;20624;-72
2021/07/31 12:17:10;;;;;;;2.30;0.98;;;28.90;44.50;;;;;;5078158;28;20059;-71
2021/07/31 12:19:57;;;;;;;3.28;1.00;;;28.80;44.20;;;;;;5058505;28;20021;-71
2021/07/31 12:22:29;;;;;;;4.22;1.00;;;28.20;45.30;;;;;;5083946;28;20036;-72
2021/07/31 12:25:13;;;;;;;0.93;0.85;;;27.40;45.60;;;;;;5063591;28;20243;-72
2021/07/31 12:28:02;;;;;;;0.90;0.70;;;26.30;47.30;;;;;;5063311;28;20029;-71
2021/07/31 12:30:35;;;;;;;1.30;0.95;;;25.40;48.60;;;;;;5075881;28;20383;-72
2021/07/31 12:33:06;;;;;;;1.20;0.90;;;25.00;50.20;;;;;;5063172;28;20029;-72
2021/07/31 12:35:35;;;;;;;2.42;0.90;;;25.00;49.60;;;;;;5051412;28;20434;-71
2021/07/31 12:38:01;;;;;;;1.00;0.80;;;26.30;48.00;;;;;;5070492;28;20028;-71
2021/07/31 12:40:27;;;;;;;3.05;0.70;;;27.60;45.30;;;;;;5073000;28;20037;-71
2021/07/31 12:42:53;;;;;;;1.02;0.90;;;27.80;44.60;;;;;;5071169;28;20032;-70
2021/07/31 12:45:18;;;;;;;2.35;0.73;;;27.80;45.50;;;;;;5075830;28;20073;-71
2021/07/31 12:47:44;;;;;;;2.75;0.75;;;27.90;44.00;;;;;;5074313;28;20033;-72
2021/07/31 12:50:10;;;;;;;1.17;0.80;;;27.60;44.20;;;;;;5043169;28;20515;-72